createdAt,value
2023-11-24T00:00:33.611Z,7.99
2023-11-24T00:03:00.946Z,8.02
2023-11-24T00:05:28.261Z,8.01
2023-11-24T00:07:55.534Z,7.93
2023-11-24T00:10:23.088Z,7.85
2023-11-24T00:12:50.565Z,7.87
2023-11-24T00:15:17.886Z,7.81
2023-11-24T00:17:45.090Z,7.81
2023-11-24T00:20:15.377Z,7.95
2023-11-24T00:22:42.762Z,7.87
2023-11-24T00:25:14.077Z,7.89
2023-11-24T00:27:41.663Z,7.56
2023-11-24T00:30:09.005Z,7.56
2023-11-24T00:32:36.589Z,7.36
2023-11-24T00:35:07.543Z,7.08
2023-11-24T00:37:34.949Z,7.13
2023-11-24T00:40:04.085Z,7.14
2023-11-24T00:42:31.526Z,7.31
2023-11-24T00:44:58.779Z,7.22
2023-11-24T00:47:27.473Z,7.23
2023-11-24T00:49:55.301Z,7.07
2023-11-24T00:52:22.574Z,6.86
2023-11-24T00:54:49.747Z,6.78
2023-11-24T00:57:16.928Z,6.85
2023-11-24T00:59:45.614Z,6.78
2023-11-24T01:02:15.573Z,6.77
2023-11-24T01:04:42.918Z,6.32
2023-11-24T01:07:11.162Z,6.45
2023-11-24T01:09:38.502Z,6.51
2023-11-24T01:12:06.390Z,6.53
2023-11-24T01:14:33.668Z,6.39
2023-11-24T01:17:01.590Z,6.52
2023-11-24T01:19:29.295Z,6.39
2023-11-24T01:21:56.626Z,6.28
2023-11-24T01:24:23.877Z,6.48
2023-11-24T01:26:51.215Z,6.39
2023-11-24T01:29:18.553Z,6.27
2023-11-24T01:31:46.012Z,6.58
2023-11-24T01:34:16.007Z,6.67
2023-11-24T01:36:46.092Z,6.47
2023-11-24T01:39:14.053Z,6.72
2023-11-24T01:41:41.713Z,6.76
2023-11-24T01:44:09.863Z,6.62
2023-11-24T01:46:38.534Z,6.94
2023-11-24T01:49:06.710Z,6.73
2023-11-24T01:51:34.703Z,6.63
2023-11-24T01:54:02.134Z,6.86
2023-11-24T01:56:32.199Z,6.81
2023-11-24T01:59:00.371Z,6.66
2023-11-24T02:01:30.521Z,6.81
2023-11-24T02:03:57.867Z,7.04
2023-11-24T02:06:25.369Z,6.87
2023-11-24T02:08:52.714Z,6.89
2023-11-24T02:11:20.097Z,6.83
2023-11-24T02:13:51.098Z,6.90
2023-11-24T02:16:19.861Z,7.02
2023-11-24T02:18:47.873Z,7.03
2023-11-24T02:21:15.346Z,7.18
2023-11-24T02:23:43.892Z,6.97
2023-11-24T02:26:11.531Z,7.00
2023-11-24T02:28:38.866Z,6.95
2023-11-24T02:31:08.329Z,6.98
2023-11-24T02:33:35.671Z,6.99
2023-11-24T02:36:07.161Z,7.09
2023-11-24T02:38:34.664Z,6.98
2023-11-24T02:41:02.585Z,6.99
2023-11-24T02:43:30.045Z,7.06
2023-11-24T02:45:57.213Z,7.27
2023-11-24T02:48:24.631Z,7.29
2023-11-24T02:50:51.988Z,7.26
2023-11-24T02:53:19.430Z,7.17
2023-11-24T02:55:46.649Z,7.07
2023-11-24T02:58:13.900Z,7.05
2023-11-24T03:00:41.041Z,7.15
2023-11-24T03:03:08.820Z,7.03
2023-11-24T03:05:36.278Z,7.32
2023-11-24T03:08:04.500Z,7.26
2023-11-24T03:10:32.006Z,7.32
2023-11-24T03:12:59.222Z,7.26
2023-11-24T03:15:27.236Z,7.50
2023-11-24T03:17:54.578Z,7.60
2023-11-24T03:20:22.776Z,7.43
2023-11-24T03:22:49.941Z,7.58
2023-11-24T03:25:17.407Z,7.50
2023-11-24T03:27:45.743Z,7.67
2023-11-24T03:30:14.613Z,7.56
2023-11-24T03:32:42.273Z,7.51
2023-11-24T03:35:09.867Z,7.22
2023-11-24T03:37:38.325Z,7.29
2023-11-24T03:40:06.862Z,7.49
2023-11-24T03:42:34.134Z,7.36
2023-11-24T03:45:02.559Z,7.45
2023-11-24T03:47:33.763Z,7.23
2023-11-24T03:50:01.171Z,7.13
2023-11-24T03:52:34.159Z,7.30
2023-11-24T03:55:01.568Z,7.29
2023-11-24T03:57:31.276Z,7.06
2023-11-24T03:59:59.547Z,7.21
2023-11-24T04:02:26.809Z,7.05
2023-11-24T04:04:55.275Z,7.12
2023-11-24T04:07:22.311Z,7.05
2023-11-24T04:09:49.739Z,7.03
2023-11-24T04:12:16.883Z,7.20
2023-11-24T04:14:44.108Z,7.33
2023-11-24T04:17:12.010Z,7.32
2023-11-24T04:19:39.563Z,7.19
2023-11-24T04:22:07.700Z,7.46
2023-11-24T04:24:34.928Z,7.48
2023-11-24T04:27:02.972Z,7.32
2023-11-24T04:29:31.891Z,7.36
2023-11-24T04:31:59.001Z,7.40
2023-11-24T04:34:26.540Z,7.22
2023-11-24T04:36:55.160Z,7.45
2023-11-24T04:39:22.510Z,7.24
2023-11-24T04:41:49.793Z,7.57
2023-11-24T04:44:16.839Z,7.29
2023-11-24T04:46:44.209Z,7.27
2023-11-24T04:49:11.877Z,7.43
2023-11-24T04:51:39.294Z,7.13
2023-11-24T04:54:06.521Z,7.59
2023-11-24T04:56:34.608Z,7.74
2023-11-24T04:59:01.751Z,7.53
2023-11-24T05:01:30.529Z,7.30
2023-11-24T05:04:00.612Z,7.69
2023-11-24T05:06:28.185Z,7.77
2023-11-24T05:08:55.422Z,7.64
2023-11-24T05:11:22.875Z,7.35
2023-11-24T05:13:50.562Z,7.47
2023-11-24T05:16:18.660Z,7.38
2023-11-24T05:18:45.860Z,7.51
2023-11-24T05:21:13.197Z,7.58
2023-11-24T05:23:40.407Z,7.54
2023-11-24T05:26:08.424Z,7.52
2023-11-24T05:28:35.761Z,7.57
2023-11-24T05:31:05.135Z,7.71
2023-11-24T05:33:34.281Z,7.72
2023-11-24T05:36:01.746Z,7.66
2023-11-24T05:38:29.043Z,7.57
2023-11-24T05:40:56.183Z,7.59
2023-11-24T05:43:23.316Z,7.59
2023-11-24T05:45:50.569Z,7.24
2023-11-24T05:48:18.172Z,7.19
2023-11-24T05:50:45.425Z,7.40
2023-11-24T05:53:12.773Z,7.75
2023-11-24T05:55:40.444Z,7.71
2023-11-24T05:58:07.771Z,7.43
2023-11-24T06:00:35.018Z,7.76
2023-11-24T06:03:02.333Z,7.84
2023-11-24T06:05:31.335Z,7.87
2023-11-24T06:07:59.349Z,7.81
2023-11-24T06:10:26.551Z,8.01
2023-11-24T06:12:53.828Z,7.93
2023-11-24T06:15:21.268Z,8.07
2023-11-24T06:17:49.833Z,7.93
2023-11-24T06:20:17.756Z,8.16
2023-11-24T06:22:45.888Z,7.79
2023-11-24T06:25:16.220Z,7.85
2023-11-24T06:27:45.693Z,7.85
2023-11-24T06:30:13.685Z,8.06
2023-11-24T06:32:41.077Z,7.85
2023-11-24T06:35:08.655Z,7.96
2023-11-24T06:37:35.896Z,8.14
2023-11-24T06:40:06.624Z,7.93
2023-11-24T06:42:33.814Z,7.95
2023-11-24T06:45:01.360Z,8.04
2023-11-24T06:47:29.052Z,7.73
2023-11-24T06:49:57.133Z,8.04
2023-11-24T06:52:24.686Z,8.05
2023-11-24T06:54:51.949Z,8.03
2023-11-24T06:57:19.133Z,8.11
2023-11-24T06:59:46.189Z,8.20
2023-11-24T07:02:13.432Z,8.19
2023-11-24T07:04:41.142Z,8.36
2023-11-24T07:07:08.426Z,8.34
2023-11-24T07:09:35.564Z,8.58
2023-11-24T07:12:03.658Z,8.81
2023-11-24T07:14:30.957Z,8.80
2023-11-24T07:16:58.247Z,9.07
2023-11-24T07:19:25.574Z,8.74
2023-11-24T07:21:52.884Z,8.94
2023-11-24T07:24:20.012Z,8.90
2023-11-24T07:26:47.210Z,9.00
2023-11-24T07:29:15.583Z,9.01
2023-11-24T07:31:42.802Z,8.98
2023-11-24T07:34:11.975Z,9.05
2023-11-24T07:36:39.268Z,9.07
2023-11-24T07:39:07.445Z,9.34
2023-11-24T07:41:34.671Z,9.39
2023-11-24T07:44:03.061Z,9.63
2023-11-24T07:46:30.317Z,9.58
2023-11-24T07:48:58.542Z,9.45
2023-11-24T07:51:25.781Z,9.89
2023-11-24T07:53:52.944Z,10.10
2023-11-24T07:56:22.862Z,10.15
2023-11-24T07:58:50.104Z,10.41
2023-11-24T08:01:17.582Z,10.27
2023-11-24T08:03:45.434Z,10.47
2023-11-24T08:06:12.811Z,10.65
2023-11-24T08:08:40.051Z,10.38
2023-11-24T08:11:07.148Z,10.48
2023-11-24T08:13:34.503Z,10.84
2023-11-24T08:16:02.321Z,11.07
2023-11-24T08:18:29.847Z,11.10
2023-11-24T08:20:59.313Z,11.24
2023-11-24T08:23:26.417Z,11.07
2023-11-24T08:25:53.774Z,10.93
2023-11-24T08:28:20.793Z,10.65
2023-11-24T08:30:50.276Z,10.76
2023-11-24T08:33:17.845Z,10.85
2023-11-24T08:35:44.961Z,10.44
2023-11-24T08:38:13.172Z,10.60
2023-11-24T08:40:40.455Z,10.57
2023-11-24T08:43:07.708Z,10.74
2023-11-24T08:45:35.701Z,10.47
2023-11-24T08:48:03.167Z,10.78
2023-11-24T08:50:30.331Z,10.63
2023-11-24T08:52:57.397Z,10.48
2023-11-24T08:55:24.591Z,10.54
2023-11-24T08:57:52.639Z,10.83
2023-11-24T09:00:39.485Z,10.86
2023-11-24T09:03:06.763Z,11.03
2023-11-24T09:05:34.621Z,10.86
2023-11-24T09:08:01.826Z,10.88
2023-11-24T09:10:29.935Z,10.95
2023-11-24T09:12:57.262Z,10.87
2023-11-24T09:15:25.417Z,10.88
2023-11-24T09:17:52.831Z,10.74
2023-11-24T09:20:20.096Z,10.88
2023-11-24T09:22:47.250Z,10.97
2023-11-24T09:25:16.941Z,10.87
2023-11-24T09:27:46.953Z,10.95
2023-11-24T09:30:14.412Z,10.64
2023-11-24T09:32:44.315Z,10.68
2023-11-24T09:35:12.693Z,10.58
2023-11-24T09:37:39.983Z,10.79
2023-11-24T09:40:17.515Z,10.93
2023-11-24T09:42:47.262Z,10.67
2023-11-24T09:45:19.175Z,10.81
2023-11-24T09:47:51.803Z,10.92
2023-11-24T09:50:25.210Z,10.89
2023-11-24T09:52:58.750Z,10.79
2023-11-24T09:55:28.216Z,10.83
2023-11-24T09:57:58.029Z,10.83
2023-11-24T10:00:27.497Z,10.89
2023-11-24T10:03:00.181Z,10.94
2023-11-24T10:05:27.892Z,10.86
2023-11-24T10:07:56.353Z,10.85
2023-11-24T10:10:25.611Z,10.85
2023-11-24T10:12:55.070Z,10.54
2023-11-24T10:15:22.562Z,10.70
2023-11-24T10:17:50.298Z,10.54
2023-11-24T10:20:30.111Z,10.57
2023-11-24T10:23:00.109Z,10.69
2023-11-24T10:25:30.262Z,10.54
2023-11-24T10:28:00.779Z,10.67
2023-11-24T10:30:27.936Z,10.59
2023-11-24T10:32:57.773Z,10.35
2023-11-24T10:35:26.240Z,10.45
2023-11-24T10:37:54.077Z,10.44
2023-11-24T10:40:22.264Z,10.31
2023-11-24T10:42:51.786Z,10.31
2023-11-24T10:45:22.542Z,10.26
2023-11-24T10:48:01.536Z,10.45
2023-11-24T10:50:30.651Z,10.42
2023-11-24T10:53:16.353Z,10.66
2023-11-24T10:55:46.717Z,10.78
2023-11-24T10:58:14.738Z,10.36
2023-11-24T11:00:42.204Z,10.47
2023-11-24T11:03:13.743Z,10.69
2023-11-24T11:06:18.509Z,10.94
2023-11-24T11:08:58.406Z,10.83
2023-11-24T11:11:40.960Z,10.88
2023-11-24T11:14:09.561Z,10.84
2023-11-24T11:16:38.716Z,10.88
2023-11-24T11:19:35.018Z,11.06
2023-11-24T11:22:02.849Z,11.13
2023-11-24T11:24:30.391Z,10.58
2023-11-24T11:26:59.318Z,10.39
2023-11-24T11:29:30.144Z,10.67
2023-11-24T11:31:57.847Z,10.78
2023-11-24T11:34:33.225Z,10.80
2023-11-24T11:37:13.294Z,10.84
2023-11-24T11:39:55.232Z,10.50
2023-11-24T11:42:33.202Z,10.49
2023-11-24T11:45:11.791Z,10.19
2023-11-24T11:48:00.081Z,10.35
2023-11-24T11:50:27.373Z,10.65
2023-11-24T11:52:59.242Z,10.51
2023-11-24T11:55:26.891Z,10.47
2023-11-24T11:57:55.435Z,10.29
2023-11-24T12:00:26.890Z,10.16
2023-11-24T12:02:56.368Z,10.62
2023-11-24T12:05:24.572Z,10.64
2023-11-24T12:07:54.994Z,10.59
2023-11-24T12:10:22.417Z,10.68
2023-11-24T12:12:50.206Z,10.80
2023-11-24T12:15:19.145Z,10.91
2023-11-24T12:17:47.222Z,10.79
2023-11-24T12:20:16.355Z,10.55
2023-11-24T12:22:45.077Z,11.09
2023-11-24T12:25:14.354Z,10.96
2023-11-24T12:27:45.795Z,10.90
2023-11-24T12:30:16.209Z,10.93
2023-11-24T12:32:44.532Z,11.22
2023-11-24T12:35:12.673Z,11.31
2023-11-24T12:37:45.581Z,11.19
2023-11-24T12:40:13.283Z,11.31
2023-11-24T12:42:44.645Z,11.55
2023-11-24T12:45:13.811Z,11.10
2023-11-24T12:47:42.611Z,11.09
2023-11-24T12:50:14.821Z,10.86
2023-11-24T12:52:46.932Z,10.63
2023-11-24T12:55:14.358Z,11.09
2023-11-24T12:57:45.432Z,11.40
2023-11-24T13:00:18.059Z,11.56
2023-11-24T13:02:46.638Z,11.52
2023-11-24T13:05:14.907Z,11.13
2023-11-24T13:07:43.070Z,11.39
2023-11-24T13:10:12.701Z,11.12
2023-11-24T13:12:40.764Z,11.27
2023-11-24T13:15:09.176Z,11.30
2023-11-24T13:17:37.134Z,10.84
2023-11-24T13:20:05.155Z,10.84
2023-11-24T13:22:35.398Z,10.74
2023-11-24T13:25:02.922Z,10.87
2023-11-24T13:27:32.936Z,11.02
2023-11-24T13:30:00.854Z,11.09
2023-11-24T13:32:29.642Z,11.20
2023-11-24T13:34:58.033Z,11.39
2023-11-24T13:37:25.253Z,11.11
2023-11-24T13:39:52.720Z,11.16
2023-11-24T13:42:21.506Z,11.26
2023-11-24T13:44:49.280Z,11.09
2023-11-24T13:47:17.574Z,11.01
2023-11-24T13:49:47.635Z,10.89
2023-11-24T13:52:16.182Z,11.03
2023-11-24T13:54:43.702Z,10.96
2023-11-24T13:57:11.151Z,10.97
2023-11-24T13:59:38.309Z,11.17
2023-11-24T14:02:06.894Z,10.90
2023-11-24T14:04:34.850Z,10.56
2023-11-24T14:07:02.164Z,10.90
2023-11-24T14:09:41.138Z,10.91
2023-11-24T14:12:10.591Z,10.51
2023-11-24T14:14:38.432Z,10.53
2023-11-24T14:17:05.612Z,10.50
2023-11-24T14:19:32.816Z,10.65
2023-11-24T14:22:01.977Z,10.89
2023-11-24T14:24:29.234Z,10.52
2023-11-24T14:26:56.767Z,10.52
2023-11-24T14:29:24.576Z,10.38
2023-11-24T14:31:51.660Z,10.57
2023-11-24T14:34:20.356Z,10.76
2023-11-24T14:36:47.784Z,10.54
2023-11-24T14:39:27.151Z,10.60
2023-11-24T14:41:58.704Z,10.56
2023-11-24T14:44:26.110Z,10.51
2023-11-24T14:46:53.660Z,10.60
2023-11-24T14:49:21.043Z,10.38
2023-11-24T14:51:49.900Z,10.52
2023-11-24T14:54:19.434Z,10.22
2023-11-24T14:56:49.383Z,9.79
2023-11-24T14:59:18.098Z,10.10
2023-11-24T15:01:45.644Z,10.08
2023-11-24T15:04:20.128Z,10.20
2023-11-24T15:06:52.156Z,10.22
2023-11-24T15:09:20.411Z,10.20
2023-11-24T15:11:53.607Z,10.19
2023-11-24T15:14:33.608Z,10.14
2023-11-24T15:17:17.203Z,9.86
2023-11-24T15:19:47.005Z,10.04
2023-11-24T15:22:20.379Z,10.06
2023-11-24T15:24:54.621Z,9.82
2023-11-24T15:27:22.154Z,9.66
2023-11-24T15:29:50.204Z,9.76
2023-11-24T15:32:21.170Z,9.61
2023-11-24T15:34:48.499Z,10.04
2023-11-24T15:37:15.566Z,10.14
2023-11-24T15:39:44.035Z,10.09
2023-11-24T15:42:15.997Z,10.08
2023-11-24T15:44:45.200Z,9.94
2023-11-24T15:47:12.559Z,9.82
2023-11-24T15:49:43.446Z,10.15
2023-11-24T15:52:14.762Z,10.14
2023-11-24T15:54:43.815Z,10.12
2023-11-24T15:57:11.418Z,9.99
2023-11-24T15:59:44.232Z,9.87
2023-11-24T16:02:15.631Z,10.04
2023-11-24T16:04:46.495Z,9.83
2023-11-24T16:07:18.735Z,9.95
2023-11-24T16:09:46.787Z,10.05
2023-11-24T16:12:15.417Z,10.00
2023-11-24T16:14:45.130Z,10.00
2023-11-24T16:17:13.748Z,9.92
2023-11-24T16:19:41.291Z,10.14
2023-11-24T16:22:11.732Z,9.97
2023-11-24T16:24:41.071Z,9.88
2023-11-24T16:27:10.159Z,10.00
2023-11-24T16:29:37.209Z,10.03
2023-11-24T16:32:05.015Z,10.17
2023-11-24T16:34:32.348Z,10.28
2023-11-24T16:37:00.155Z,10.05
2023-11-24T16:39:30.300Z,10.00
2023-11-24T16:41:58.604Z,10.01
2023-11-24T16:44:26.373Z,10.15
2023-11-24T16:46:59.164Z,10.08
2023-11-24T16:49:29.339Z,10.29
2023-11-24T16:51:56.769Z,10.05
2023-11-24T16:54:24.158Z,10.29
2023-11-24T16:56:51.479Z,9.94
2023-11-24T16:59:21.689Z,9.86
2023-11-24T17:01:51.363Z,9.43
2023-11-24T17:04:19.378Z,9.87
2023-11-24T17:06:51.339Z,9.75
2023-11-24T17:09:20.254Z,9.79
2023-11-24T17:11:47.938Z,9.66
2023-11-24T17:14:15.758Z,9.97
2023-11-24T17:16:44.530Z,10.01
2023-11-24T17:19:17.125Z,9.98
2023-11-24T17:21:45.554Z,9.74
2023-11-24T17:24:13.244Z,9.82
2023-11-24T17:26:41.568Z,9.77
2023-11-24T17:29:14.698Z,9.43
2023-11-24T17:31:44.033Z,9.74
2023-11-24T17:34:15.767Z,9.72
2023-11-24T17:36:43.265Z,9.96
2023-11-24T17:39:12.814Z,9.82
2023-11-24T17:41:40.866Z,10.14
2023-11-24T17:44:12.727Z,10.00
2023-11-24T17:46:41.219Z,10.09
2023-11-24T17:49:12.733Z,9.81
2023-11-24T17:51:42.496Z,9.95
2023-11-24T17:54:11.187Z,9.82
2023-11-24T17:56:38.555Z,10.02
2023-11-24T17:59:06.902Z,9.88
2023-11-24T18:01:34.672Z,9.85
2023-11-24T18:04:02.049Z,9.70
2023-11-24T18:06:30.789Z,10.00
2023-11-24T18:08:58.807Z,9.88
2023-11-24T18:11:32.876Z,9.90
2023-11-24T18:14:01.157Z,9.75
2023-11-24T18:16:29.164Z,9.74
2023-11-24T18:18:56.535Z,9.72
2023-11-24T18:21:25.960Z,10.00
2023-11-24T18:23:53.338Z,10.18
2023-11-24T18:26:21.142Z,10.02
2023-11-24T18:28:50.541Z,9.89
2023-11-24T18:31:18.001Z,9.95
2023-11-24T18:33:45.579Z,9.92
2023-11-24T18:36:13.092Z,9.90
2023-11-24T18:38:40.875Z,9.85
2023-11-24T18:41:09.364Z,10.06
2023-11-24T18:43:40.313Z,9.93
2023-11-24T18:46:09.173Z,10.17
2023-11-24T18:48:36.795Z,9.80
2023-11-24T18:51:04.199Z,9.98
2023-11-24T18:53:31.484Z,10.13
2023-11-24T18:55:59.653Z,9.91
2023-11-24T18:58:27.090Z,9.83
2023-11-24T19:00:54.519Z,9.91
2023-11-24T19:03:21.799Z,9.87
2023-11-24T19:05:49.377Z,9.87
2023-11-24T19:08:16.843Z,9.80
2023-11-24T19:10:44.628Z,9.79
2023-11-24T19:13:16.899Z,9.83
2023-11-24T19:15:47.049Z,9.88
2023-11-24T19:18:14.993Z,9.94
2023-11-24T19:20:42.996Z,9.92
2023-11-24T19:23:10.626Z,10.00
2023-11-24T19:25:38.169Z,10.09
2023-11-24T19:28:05.570Z,10.10
2023-11-24T19:30:35.180Z,10.40
2023-11-24T19:33:03.064Z,10.31
2023-11-24T19:35:30.525Z,10.18
2023-11-24T19:37:57.869Z,10.16
2023-11-24T19:40:25.413Z,10.14
2023-11-24T19:42:53.082Z,10.42
2023-11-24T19:45:20.513Z,10.36
2023-11-24T19:47:48.432Z,10.48
2023-11-24T19:50:15.852Z,10.59
2023-11-24T19:52:43.168Z,10.57
2023-11-24T19:55:10.462Z,10.67
2023-11-24T19:57:37.813Z,10.83
2023-11-24T20:00:09.957Z,10.64
2023-11-24T20:02:38.232Z,10.64
2023-11-24T20:05:07.151Z,10.78
2023-11-24T20:07:34.579Z,10.48
2023-11-24T20:10:02.128Z,10.49
2023-11-24T20:12:32.229Z,10.55
2023-11-24T20:14:59.497Z,10.55
2023-11-24T20:17:26.861Z,10.74
2023-11-24T20:19:54.413Z,10.51
2023-11-24T20:22:21.694Z,10.51
2023-11-24T20:24:49.267Z,10.71
2023-11-24T20:27:18.036Z,10.81
2023-11-24T20:29:45.938Z,10.74
2023-11-24T20:32:13.788Z,10.49
2023-11-24T20:34:41.169Z,10.01
2023-11-24T20:37:09.063Z,10.28
2023-11-24T20:39:36.241Z,10.22
2023-11-24T20:42:03.638Z,10.41
2023-11-24T20:44:33.239Z,10.48
2023-11-24T20:47:01.466Z,10.73
2023-11-24T20:49:29.359Z,10.55
2023-11-24T20:51:58.409Z,10.50
2023-11-24T20:54:46.152Z,10.73
2023-11-24T20:57:14.506Z,10.75
2023-11-24T20:59:41.762Z,10.71
2023-11-24T21:02:09.369Z,10.70
2023-11-24T21:04:36.840Z,10.77
2023-11-24T21:07:04.360Z,11.02
2023-11-24T21:09:32.101Z,10.93
2023-11-24T21:11:59.581Z,10.77
2023-11-24T21:14:27.709Z,10.71
2023-11-24T21:16:55.582Z,10.55
2023-11-24T21:19:22.780Z,10.61
2023-11-24T21:21:50.533Z,10.97
2023-11-24T21:24:17.945Z,10.91
2023-11-24T21:26:45.105Z,10.90
2023-11-24T21:29:12.563Z,10.86
2023-11-24T21:31:39.819Z,10.87
2023-11-24T21:34:07.576Z,10.91
2023-11-24T21:36:36.106Z,10.79
2023-11-24T21:39:06.055Z,10.78
2023-11-24T21:41:34.943Z,10.89
2023-11-24T21:44:02.396Z,10.97
2023-11-24T21:46:29.730Z,11.16
2023-11-24T21:48:57.128Z,11.11
2023-11-24T21:51:24.360Z,11.20
2023-11-24T21:53:52.038Z,11.31
2023-11-24T21:56:27.433Z,11.33
2023-11-24T21:58:54.944Z,11.42
2023-11-24T22:01:23.818Z,11.24
2023-11-24T22:03:53.375Z,11.38
2023-11-24T22:06:25.443Z,11.31
2023-11-24T22:08:53.339Z,11.16
2023-11-24T22:11:20.616Z,11.24
2023-11-24T22:13:47.984Z,11.18
2023-11-24T22:16:15.239Z,11.14
2023-11-24T22:18:42.461Z,11.44
2023-11-24T22:21:09.742Z,11.26
2023-11-24T22:23:36.972Z,11.14
2023-11-24T22:26:04.294Z,11.07
2023-11-24T22:28:31.519Z,11.45
2023-11-24T22:30:58.841Z,11.31
2023-11-24T22:33:26.243Z,11.45
2023-11-24T22:35:53.471Z,11.51
2023-11-24T22:38:20.684Z,11.35
2023-11-24T22:40:49.568Z,11.35
2023-11-24T22:43:16.982Z,11.54
2023-11-24T22:45:44.303Z,11.61
2023-11-24T22:48:12.467Z,11.65
2023-11-24T22:50:39.889Z,11.33
2023-11-24T22:53:07.085Z,11.74
2023-11-24T22:55:34.573Z,11.82
2023-11-24T22:58:01.926Z,12.07
2023-11-24T23:00:41.200Z,12.04
2023-11-24T23:03:13.323Z,11.89
2023-11-24T23:05:40.768Z,11.92
2023-11-24T23:08:08.049Z,11.98
2023-11-24T23:10:35.487Z,11.99
2023-11-24T23:13:04.486Z,11.96
2023-11-24T23:15:32.642Z,11.93
2023-11-24T23:18:01.380Z,11.97
2023-11-24T23:20:29.408Z,12.15
2023-11-24T23:22:56.644Z,12.27
2023-11-24T23:25:24.831Z,12.46
2023-11-24T23:27:52.288Z,12.59
2023-11-24T23:30:19.622Z,12.53
2023-11-24T23:32:46.882Z,12.34
2023-11-24T23:35:14.474Z,12.33
2023-11-24T23:37:45.318Z,12.40
2023-11-24T23:40:15.205Z,12.32
2023-11-24T23:42:46.432Z,11.93
2023-11-24T23:45:15.318Z,11.94
2023-11-24T23:47:43.166Z,12.08
2023-11-24T23:50:10.878Z,12.12
2023-11-24T23:52:38.144Z,12.14
2023-11-24T23:55:06.063Z,12.05
2023-11-24T23:57:38.329Z,12.06
